Time;durP1;ratioP1;P1;durP2;ratioP2;P2;SDS_P1;SDS_P2;PMS_P1;PMS_P2;Temp;Humidity;BMP_temperature;BMP_pressure;BME280_temperature;BME280_humidity;BME280_pressure;Samples;Min_cycle;Max_cycle;Signal;HPM_P1;HPM_P2
2021/03/26 05:57:26;;;;;;;;;;;;;;;0.38;86.98;98404.05;1755429;77;20736;-68
2021/03/26 06:00:20;;;;;;;;;;;;;;;0.55;86.53;98406.61;1739343;80;20505;-66
2021/03/26 06:03:09;;;;;;;;;;;;;;;0.66;85.93;98405.77;1732956;80;20395;-70
2021/03/26 06:06:23;;;;;;;;;;;;;;;0.75;85.61;98411.73;1749928;79;20607;-70
2021/03/26 06:09:36;;;;;;;;;;;;;;;0.84;85.35;98405.56;1737262;80;20731;-69
2021/03/26 06:12:53;;;;;;;;;;;;;;;0.97;84.95;98407.13;1750840;80;21939;-66
2021/03/26 06:15:56;;;;;;;;;;;;;;;1.10;85.16;98409.17;1737003;80;20543;-64
2021/03/26 06:19:03;;;;;;;;;;;;;;;1.31;85.67;98416.36;1740552;80;20253;-69
2021/03/26 06:21:59;;;;;;;;;;;;;;;1.55;84.66;98418.83;1743139;80;20287;-70
2021/03/26 06:25:01;;;;;;;;;;;;;;;1.76;83.55;98411.73;1709422;81;20540;-68
2021/03/26 06:27:37;;;;;;;;;;;;;;;1.85;83.06;98417.18;1740926;80;21861;-62
2021/03/26 06:30:21;;;;;;;;;;;;;;;1.93;82.69;98422.31;1740189;80;20299;-65
2021/03/26 06:33:11;;;;;;;;;;;;;;;1.96;82.72;98421.95;1738850;80;20678;-70
2021/03/26 06:35:52;;;;;;;;;;;;;;;2.03;82.32;98416.88;1738773;80;20488;-68
2021/03/26 06:38:32;;;;;;;;;;;;;;;2.09;81.30;98423.46;1736835;80;20599;-68
2021/03/26 06:41:31;;;;;;;;;;;;;;;2.15;80.35;98421.50;1733913;80;21834;-70
2021/03/26 06:44:23;;;;;;;;;;;;;;;2.24;79.68;98423.50;1753397;79;22779;-68
2021/03/26 06:47:29;;;;;;;;;;;;;;;2.39;78.87;98420.95;1738614;80;20520;-67
2021/03/26 06:50:06;;;;;;;;;;;;;;;2.52;78.17;98425.06;1737206;80;20761;-69
2021/03/26 06:53:13;;;;;;;;;;;;;;;2.66;77.79;98427.67;1734552;80;20773;-71
2021/03/26 06:56:00;;;;;;;;;;;;;;;2.80;77.49;98423.97;1737561;80;21860;-70
2021/03/26 06:58:34;;;;;;;;;;;;;;;2.94;77.13;98422.67;1732207;81;20469;-68
2021/03/26 07:01:15;;;;;;;;;;;;;;;3.06;76.74;98421.22;1727714;80;20214;-69
2021/03/26 07:04:01;;;;;;;;;;;;;;;3.21;76.56;98420.40;1728785;82;20587;-71
2021/03/26 07:07:07;;;;;;;;;;;;;;;3.34;76.35;98420.55;1732010;80;20591;-69
2021/03/26 07:10:14;;;;;;;;;;;;;;;3.47;76.07;98424.59;1734090;80;21824;-71
2021/03/26 07:13:07;;;;;;;;;;;;;;;3.62;75.43;98424.56;1706060;81;20637;-66
2021/03/26 07:15:56;;;;;;;;;;;;;;;3.77;74.21;98421.42;1657376;83;20651;-69
2021/03/26 07:18:29;;;;;;;;;;;;;;;3.96;73.03;98426.53;1705794;82;20472;-66
2021/03/26 07:21:18;;;;;;;;;;;;;;;4.08;72.42;98427.14;1708125;81;20903;-67
2021/03/26 07:24:02;;;;;;;;;;;;;;;4.19;71.74;98421.91;1718346;81;22115;-65
2021/03/26 07:26:34;;;;;;;;;;;;;;;4.30;71.72;98422.23;1706767;81;20478;-74
2021/03/26 07:29:30;;;;;;;;;;;;;;;4.42;71.33;98421.70;1708034;81;20393;-68
2021/03/26 07:32:20;;;;;;;;;;;;;;;4.52;70.98;98423.48;1712787;81;20567;-64
2021/03/26 07:34:58;;;;;;;;;;;;;;;4.62;70.32;98418.23;1714348;81;20673;-63
2021/03/26 07:37:50;;;;;;;;;;;;;;;4.73;69.77;98419.52;1715236;81;21902;-63
2021/03/26 07:40:54;;;;;;;;;;;;;;;4.87;69.27;98423.01;1715630;81;20551;-70
2021/03/26 07:43:26;;;;;;;;;;;;;;;4.98;68.00;98421.16;1699561;81;20455;-63
2021/03/26 07:46:04;;;;;;;;;;;;;;;5.08;67.40;98419.81;1686641;82;20495;-62
2021/03/26 07:48:35;;;;;;;;;;;;;;;5.16;66.88;98421.45;1682447;83;20798;-61
2021/03/26 07:51:27;;;;;;;;;;;;;;;5.27;66.16;98424.00;1682471;83;22036;-64
2021/03/26 07:53:59;;;;;;;;;;;;;;;5.36;65.93;98421.04;1680746;84;20618;-60
2021/03/26 07:56:46;;;;;;;;;;;;;;;5.48;64.96;98423.87;1683127;83;20567;-60
2021/03/26 07:59:36;;;;;;;;;;;;;;;5.57;64.29;98420.60;1697361;82;20499;-61
2021/03/26 08:02:37;;;;;;;;;;;;;;;5.65;63.80;98423.84;1719248;81;20606;-60
2021/03/26 08:05:25;;;;;;;;;;;;;;;5.73;63.67;98424.16;1708547;81;21936;-61
2021/03/26 08:08:22;;;;;;;;;;;;;;;5.85;63.60;98429.91;1666022;84;20614;-62
2021/03/26 08:10:56;;;;;;;;;;;;;;;5.99;62.47;98431.25;1682843;82;20471;-69
2021/03/26 08:13:34;;;;;;;;;;;;;;;6.10;61.82;98422.86;1675112;82;20527;-61
2021/03/26 08:16:24;;;;;;;;;;;;;;;6.22;61.64;98426.47;1747892;80;20204;-60
2021/03/26 08:19:21;;;;;;;;;;;;;;;6.33;61.66;98421.97;1650912;85;21943;-64
2021/03/26 08:22:04;;;;;;;;;;;;;;;6.47;59.92;98429.30;1699045;82;20577;-62
2021/03/26 08:24:55;;;;;;;;;;;;;;;6.60;59.37;98427.98;1745304;80;20600;-62
2021/03/26 08:27:39;;;;;;;;;;;;;;;6.64;58.93;98429.97;1737864;81;20590;-63
2021/03/26 08:30:44;;;;;;;;;;;;;;;6.77;58.53;98425.76;1742816;80;20811;-62
2021/03/26 08:33:34;;;;;;;;;;;;;;;6.89;58.37;98424.12;1745605;80;21784;-60
2021/03/26 08:36:28;;;;;;;;;;;;;;;7.01;58.92;98430.31;1747696;80;20476;-64
2021/03/26 08:39:18;;;;;;;;;;;;;;;7.15;59.09;98429.77;1747840;80;20500;-63
2021/03/26 08:41:50;;;;;;;;;;;;;;;7.26;56.15;98434.38;1748927;80;20882;-63
2021/03/26 08:44:19;;;;;;;;;;;;;;;7.30;56.54;98431.13;1743691;80;20645;-64
2021/03/26 08:46:51;;;;;;;;;;;;;;;7.30;55.68;98427.20;1747574;80;20469;-61
2021/03/26 08:49:25;;;;;;;;;;;;;;;7.36;56.14;98431.60;1742843;80;20583;-63
2021/03/26 08:52:24;;;;;;;;;;;;;;;7.42;54.61;98424.73;1749952;80;20579;-64
2021/03/26 08:55:28;;;;;;;;;;;;;;;7.47;54.67;98434.09;1747539;80;20408;-64
2021/03/26 08:58:16;;;;;;;;;;;;;;;7.48;54.42;98425.73;1741585;81;20616;-59
2021/03/26 09:01:05;;;;;;;;;;;;;;;7.51;52.94;98435.27;1742068;80;22735;-61
2021/03/26 09:03:59;;;;;;;;;;;;;;;7.51;53.19;98434.45;1745619;81;20398;-60
2021/03/26 09:06:54;;;;;;;;;;;;;;;7.51;54.16;98437.08;1747253;80;20441;-62
2021/03/26 09:09:41;;;;;;;;;;;;;;;7.58;54.25;98435.23;1745419;80;20328;-62
2021/03/26 09:12:32;;;;;;;;;;;;;;;7.64;53.09;98436.50;1744195;80;20751;-62
2021/03/26 09:15:28;;;;;;;;;;;;;;;7.68;53.21;98435.09;1745737;79;21804;-65
2021/03/26 09:18:10;;;;;;;;;;;;;;;7.74;53.62;98436.06;1710470;81;20597;-60
2021/03/26 09:20:44;;;;;;;;;;;;;;;7.81;54.00;98434.21;1747212;79;20574;-62
2021/03/26 09:23:34;;;;;;;;;;;;;;;7.88;54.19;98441.52;1747028;79;20581;-62
2021/03/26 09:26:14;;;;;;;;;;;;;;;7.95;53.75;98432.31;1746049;79;20568;-62
2021/03/26 09:28:45;;;;;;;;;;;;;;;8.03;53.05;98432.06;1747832;80;22120;-59
2021/03/26 09:31:19;;;;;;;;;;;;;;;8.09;51.68;98427.29;1741686;79;20580;-59
2021/03/26 09:34:04;;;;;;;;;;;;;;;8.13;51.65;98426.67;1747131;79;20408;-59
2021/03/26 09:36:36;;;;;;;;;;;;;;;8.16;52.03;98425.42;1747826;79;20499;-59
2021/03/26 09:39:09;;;;;;;;;;;;;;;8.23;52.21;98422.25;1720346;81;20601;-61
2021/03/26 09:41:47;;;;;;;;;;;;;;;8.29;52.37;98418.78;1752128;79;21910;-61
2021/03/26 09:44:20;;;;;;;;;;;;;;;8.33;52.30;98422.63;1742202;79;20298;-61
2021/03/26 09:46:53;;;;;;;;;;;;;;;8.38;52.00;98424.59;1718426;81;20610;-61
2021/03/26 09:49:41;;;;;;;;;;;;;;;8.40;51.19;98422.06;1747913;79;20411;-63
2021/03/26 09:52:21;;;;;;;;;;;;;;;8.38;52.10;98420.66;1748240;79;20622;-61
2021/03/26 09:54:51;;;;;;;;;;;;;;;8.41;52.62;98425.48;1720706;79;22125;-61
2021/03/26 09:57:29;;;;;;;;;;;;;;;8.51;52.29;98420.55;1749889;79;20683;-68
2021/03/26 10:00:17;;;;;;;;;;;;;;;8.58;52.02;98422.59;1748813;79;20486;-64
2021/03/26 10:03:22;;;;;;;;;;;;;;;8.66;49.69;98424.14;1750540;79;20494;-61
2021/03/26 10:06:04;;;;;;;;;;;;;;;8.65;49.46;98426.47;1751615;79;20557;-65
2021/03/26 10:11:31;;;;;;;;;;;;;;;8.74;49.89;98414.70;1745836;80;20557;-63
2021/03/26 10:14:09;;;;;;;;;;;;;;;8.83;49.93;98412.90;1739962;80;20438;-62
2021/03/26 10:16:49;;;;;;;;;;;;;;;8.92;49.28;98409.48;1737174;80;38052;-62
2021/03/26 10:19:28;;;;;;;;;;;;;;;8.95;49.20;98416.91;1740173;80;20520;-66
2021/03/26 10:21:58;;;;;;;;;;;;;;;8.98;48.85;98416.48;1737846;80;22101;-67
2021/03/26 10:24:34;;;;;;;;;;;;;;;8.99;48.83;98412.84;1740253;80;20728;-65
2021/03/26 10:27:21;;;;;;;;;;;;;;;9.04;48.47;98409.05;1735718;79;20390;-66
2021/03/26 10:29:53;;;;;;;;;;;;;;;9.14;48.56;98414.59;1744159;80;20569;-63
2021/03/26 10:32:23;;;;;;;;;;;;;;;9.18;48.26;98407.87;1721642;81;21032;-69
2021/03/26 10:34:53;;;;;;;;;;;;;;;9.23;47.85;98408.02;1748214;80;22057;-65
2021/03/26 10:37:37;;;;;;;;;;;;;;;9.29;48.73;98405.05;1720662;80;20488;-65
2021/03/26 10:40:09;;;;;;;;;;;;;;;9.35;48.32;98403.66;1717765;80;20491;-64
2021/03/26 10:43:03;;;;;;;;;;;;;;;9.38;47.31;98403.19;1724652;80;20704;-62
2021/03/26 10:45:57;;;;;;;;;;;;;;;9.38;47.11;98408.44;1743091;80;20679;-61
2021/03/26 10:48:48;;;;;;;;;;;;;;;9.40;47.53;98406.41;1749379;80;21937;-61
2021/03/26 10:51:39;;;;;;;;;;;;;;;9.46;47.72;98410.47;1729201;80;20601;-63
2021/03/26 10:54:22;;;;;;;;;;;;;;;9.50;46.44;98403.78;1745134;80;20597;-62
2021/03/26 10:57:06;;;;;;;;;;;;;;;9.53;47.34;98405.94;1738761;80;20603;-65
2021/03/26 10:59:46;;;;;;;;;;;;;;;9.53;47.98;98402.80;1743976;80;20602;-62
2021/03/26 11:02:28;;;;;;;;;;;;;;;9.60;47.54;98402.72;1738843;79;21968;-69
2021/03/26 11:04:59;;;;;;;;;;;;;;;9.63;46.30;98402.28;1735490;80;20612;-67
2021/03/26 11:07:29;;;;;;;;;;;;;;;9.62;45.28;98404.61;1732340;80;20607;-64
2021/03/26 11:10:00;;;;;;;;;;;;;;;9.63;45.32;98398.35;1732219;80;20300;-66
2021/03/26 11:12:45;;;;;;;;;;;;;;;9.64;44.39;98402.58;1740361;80;20608;-65
2021/03/26 11:15:22;;;;;;;;;;;;;;;9.60;44.86;98393.53;1739788;80;21862;-65
2021/03/26 11:18:17;;;;;;;;;;;;;;;9.58;45.59;98388.50;1722238;80;20611;-67
2021/03/26 11:21:01;;;;;;;;;;;;;;;9.65;45.57;98386.59;1743016;79;20490;-61
2021/03/26 11:23:31;;;;;;;;;;;;;;;9.74;44.51;98382.63;1748201;79;20682;-66
2021/03/26 11:26:08;;;;;;;;;;;;;;;9.81;45.04;98382.53;1749526;80;20679;-64
2021/03/26 11:28:55;;;;;;;;;;;;;;;9.90;44.60;98377.27;1744570;79;20511;-65
2021/03/26 11:31:32;;;;;;;;;;;;;;;9.98;44.46;98380.88;1742659;79;20622;-63
2021/03/26 11:34:10;;;;;;;;;;;;;;;10.01;43.95;98364.66;1743958;80;20541;-65
2021/03/26 11:36:48;;;;;;;;;;;;;;;10.03;44.11;98361.81;1751673;79;20592;-67
2021/03/26 11:39:23;;;;;;;;;;;;;;;10.06;44.29;98359.55;1747425;80;20775;-66
2021/03/26 11:41:58;;;;;;;;;;;;;;;10.13;44.58;98360.24;1748376;79;21985;-66
2021/03/26 11:44:29;;;;;;;;;;;;;;;10.22;44.44;98357.31;1747483;79;20611;-66
2021/03/26 11:47:00;;;;;;;;;;;;;;;10.30;44.46;98355.67;1749325;79;20492;-63
2021/03/26 11:49:31;;;;;;;;;;;;;;;10.35;44.21;98346.06;1743374;80;20419;-63
2021/03/26 11:52:23;;;;;;;;;;;;;;;10.40;42.95;98348.80;1744175;80;20645;-64
2021/03/26 11:54:57;;;;;;;;;;;;;;;10.41;43.31;98350.92;1713292;80;22089;-63
2021/03/26 11:57:32;;;;;;;;;;;;;;;10.44;44.05;98345.22;1718974;80;20474;-63
2021/03/26 12:00:26;;;;;;;;;;;;;;;10.44;43.91;98347.33;1708682;80;20377;-62
2021/03/26 12:03:16;;;;;;;;;;;;;;;10.46;43.54;98348.39;1714552;80;20285;-63
2021/03/26 12:06:05;;;;;;;;;;;;;;;10.48;43.17;98339.78;1719822;80;20492;-69
2021/03/26 12:09:11;;;;;;;;;;;;;;;10.50;43.89;98331.16;1708267;80;21946;-62
2021/03/26 12:12:14;;;;;;;;;;;;;;;10.58;44.61;98332.13;1714269;81;20270;-67
2021/03/26 12:15:08;;;;;;;;;;;;;;;10.63;43.62;98331.42;1694757;81;20389;-67
2021/03/26 12:18:00;;;;;;;;;;;;;;;10.59;43.79;98330.30;1657867;84;20549;-66
2021/03/26 12:20:31;;;;;;;;;;;;;;;10.62;44.68;98325.37;1683161;82;20490;-65
2021/03/26 12:23:03;;;;;;;;;;;;;;;10.66;44.55;98320.47;1687664;82;21857;-67
2021/03/26 12:26:06;;;;;;;;;;;;;;;10.68;43.21;98324.44;1691502;82;20466;-68
2021/03/26 12:28:39;;;;;;;;;;;;;;;10.69;43.48;98321.30;1692157;82;20520;-63
2021/03/26 12:31:13;;;;;;;;;;;;;;;10.70;43.53;98320.27;1690161;82;20164;-62
2021/03/26 12:33:57;;;;;;;;;;;;;;;10.75;44.54;98315.91;1696030;82;20613;-65
2021/03/26 12:36:56;;;;;;;;;;;;;;;10.82;43.70;98317.89;1692940;82;21905;-60
2021/03/26 12:39:33;;;;;;;;;;;;;;;10.89;43.75;98316.45;1718564;81;20504;-63
2021/03/26 12:42:19;;;;;;;;;;;;;;;10.92;43.22;98308.11;1687656;83;20308;-62
2021/03/26 12:44:58;;;;;;;;;;;;;;;10.94;43.68;98308.17;1735584;80;20794;-67
2021/03/26 12:47:34;;;;;;;;;;;;;;;10.99;43.78;98300.89;1688944;83;20670;-67
2021/03/26 12:50:16;;;;;;;;;;;;;;;11.06;44.26;98304.69;1745804;79;20740;-62
2021/03/26 12:53:06;;;;;;;;;;;;;;;11.09;43.98;98301.09;1751435;79;20572;-65
2021/03/26 12:55:56;;;;;;;;;;;;;;;11.10;45.04;98300.03;1756121;79;20527;-63
2021/03/26 12:58:44;;;;;;;;;;;;;;;11.11;45.62;98291.63;1731571;80;20490;-66
2021/03/26 13:01:33;;;;;;;;;;;;;;;11.12;45.20;98291.91;1754050;79;20472;-66
2021/03/26 13:04:05;;;;;;;;;;;;;;;11.10;45.45;98297.92;1739587;79;21774;-62
2021/03/26 13:06:36;;;;;;;;;;;;;;;11.12;45.16;98294.55;1718268;82;20568;-65
2021/03/26 13:09:22;;;;;;;;;;;;;;;11.14;44.79;98293.28;1709854;81;20505;-65
2021/03/26 13:12:10;;;;;;;;;;;;;;;11.17;44.61;98291.48;1741983;79;20670;-65
2021/03/26 13:14:50;;;;;;;;;;;;;;;11.20;44.87;98292.34;1709102;81;20631;-66
2021/03/26 13:17:20;;;;;;;;;;;;;;;11.26;45.20;98282.70;1742678;79;21731;-64
2021/03/26 13:19:49;;;;;;;;;;;;;;;11.37;45.65;98283.70;1746404;80;20484;-64
2021/03/26 13:22:22;;;;;;;;;;;;;;;11.46;45.62;98284.89;1713197;81;20675;-64
2021/03/26 13:25:23;;;;;;;;;;;;;;;11.49;45.80;98286.55;1737735;81;20424;-63
2021/03/26 13:28:00;;;;;;;;;;;;;;;11.48;45.63;98288.89;1715560;81;20622;-64
2021/03/26 13:30:37;;;;;;;;;;;;;;;11.44;45.74;98289.09;1708524;82;22029;-65
2021/03/26 13:33:15;;;;;;;;;;;;;;;11.39;45.27;98287.67;1717450;82;20482;-66
2021/03/26 13:36:35;;;;;;;;;;;;;;;11.39;46.17;98290.82;1709841;82;20230;-66
2021/03/26 13:39:11;;;;;;;;;;;;;;;11.41;45.63;98280.34;1629246;86;20586;-62
2021/03/26 13:41:45;;;;;;;;;;;;;;;11.46;45.76;98284.38;1631042;86;20775;-65
2021/03/26 13:44:25;;;;;;;;;;;;;;;11.56;45.73;98285.87;1859280;75;20559;-61
2021/03/26 13:46:57;;;;;;;;;;;;;;;11.53;45.95;98281.59;1825181;77;20690;-62
2021/03/26 13:49:25;;;;;;;;;;;;;;;11.52;45.59;98285.28;1838807;77;21905;-61
2021/03/26 13:51:57;;;;;;;;;;;;;;;11.45;46.23;98279.37;1833746;77;20476;-62
2021/03/26 13:54:42;;;;;;;;;;;;;;;11.38;46.08;98286.10;1832947;77;20485;-62
2021/03/26 13:57:21;;;;;;;;;;;;;;;11.38;47.13;98286.61;1834908;77;20576;-62
2021/03/26 13:59:57;;;;;;;;;;;;;;;11.42;46.27;98281.95;1825537;77;20592;-61
2021/03/26 14:02:36;;;;;;;;;;;;;;;11.43;46.43;98275.66;1805330;77;21786;-61
2021/03/26 14:05:09;;;;;;;;;;;;;;;11.45;46.51;98273.59;1833529;77;20621;-62
2021/03/26 14:07:37;;;;;;;;;;;;;;;11.47;46.85;98280.71;1833079;77;20475;-61
2021/03/26 14:10:13;;;;;;;;;;;;;;;11.47;46.99;98276.77;1835592;77;20474;-60
2021/03/26 14:12:45;;;;;;;;;;;;;;;11.46;46.12;98279.11;1843867;77;20832;-64
